Time;durP1;ratioP1;P1;durP2;ratioP2;P2;SDS_P1;SDS_P2;PMS_P1;PMS_P2;Temp;Humidity;BMP_temperature;BMP_pressure;BME280_temperature;BME280_humidity;BME280_pressure;Samples;Min_cycle;Max_cycle;Signal;HPM_P1;HPM_P2
2024/01/21 00:00:25;;;;;;;3.90;1.20;;;;;;;10.37;38.41;97228.03;6156190;23;20001;-27
2024/01/21 00:02:51;;;;;;;9.00;2.00;;;;;;;10.34;38.12;97237.72;6156463;23;20028;-27
2024/01/21 00:05:16;;;;;;;7.72;1.65;;;;;;;10.40;38.16;97233.38;6156268;23;20009;-27
2024/01/21 00:07:42;;;;;;;5.70;1.50;;;;;;;10.55;38.08;97216.94;6156175;23;20076;-27
2024/01/21 00:10:09;;;;;;;5.07;1.48;;;;;;;10.24;38.30;97219.63;6156538;23;20009;-27
2024/01/21 00:12:35;;;;;;;3.33;0.90;;;;;;;10.28;38.40;97209.50;6156117;23;20012;-27
2024/01/21 00:15:01;;;;;;;6.55;1.20;;;;;;;10.17;38.75;97194.50;6156056;23;20009;-27
2024/01/21 00:17:26;;;;;;;3.30;1.20;;;;;;;10.35;38.49;97181.56;6156466;23;20005;-27
2024/01/21 00:19:52;;;;;;;4.22;1.10;;;;;;;10.31;38.59;97170.75;6156142;23;20005;-27
2024/01/21 00:22:17;;;;;;;3.65;0.95;;;;;;;10.21;38.92;97181.72;6156154;23;20297;-27
2024/01/21 00:24:42;;;;;;;2.80;1.15;;;;;;;10.29;38.54;97196.72;6156458;23;20475;-27
2024/01/21 00:27:08;;;;;;;3.35;0.98;;;;;;;10.15;38.95;97203.03;6156084;23;20005;-27
2024/01/21 00:29:34;;;;;;;2.90;0.90;;;;;;;10.09;39.05;97181.06;6156249;23;20005;-27
2024/01/21 00:31:59;;;;;;;5.95;1.13;;;;;;;10.17;38.87;97176.31;6155852;23;20006;-27
2024/01/21 00:34:25;;;;;;;3.45;1.00;;;;;;;10.32;39.14;97172.28;6156159;23;20060;-27
2024/01/21 00:36:50;;;;;;;2.22;0.80;;;;;;;9.87;38.82;97193.28;6156005;23;20002;-27
2024/01/21 00:39:16;;;;;;;2.95;0.80;;;;;;;10.02;39.51;97199.31;6155927;23;20001;-27
2024/01/21 00:41:41;;;;;;;9.32;1.30;;;;;;;10.22;39.13;97203.00;6155894;23;20076;-27
2024/01/21 00:44:08;;;;;;;3.85;1.83;;;;;;;10.16;38.80;97201.88;6155866;23;20038;-27
2024/01/21 00:46:38;;;;;;;3.45;0.80;;;;;;;10.21;38.42;97228.56;6156069;23;20001;-27
2024/01/21 00:49:03;;;;;;;4.93;0.80;;;;;;;10.18;38.60;97250.25;6155852;23;20001;-27
2024/01/21 00:51:28;;;;;;;4.18;0.80;;;;;;;10.22;38.44;97278.13;6155686;23;20324;-27
2024/01/21 00:53:54;;;;;;;4.05;0.93;;;;;;;10.18;38.54;97274.66;6155858;23;20088;-27
2024/01/21 00:56:19;;;;;;;4.10;1.17;;;;;;;10.20;38.63;97288.59;6155694;23;20008;-27
2024/01/21 00:58:45;;;;;;;3.38;0.93;;;;;;;10.17;38.34;97276.59;6155421;23;20008;-27
2024/01/21 01:01:10;;;;;;;4.15;0.90;;;;;;;10.33;38.51;97293.13;6155848;23;20005;-27
2024/01/21 01:03:37;;;;;;;4.75;1.17;;;;;;;10.18;38.57;97275.44;6155527;23;20100;-27
2024/01/21 01:06:03;;;;;;;5.57;0.90;;;;;;;10.46;37.84;97273.63;6156059;23;20375;-27
2024/01/21 01:08:28;;;;;;;2.30;0.93;;;;;;;10.22;38.26;97276.19;6155747;23;20008;-27
2024/01/21 01:10:54;;;;;;;3.33;0.70;;;;;;;10.15;38.13;97265.38;6155400;23;20001;-27
2024/01/21 01:13:19;;;;;;;2.65;0.82;;;;;;;10.14;38.31;97271.97;6155591;23;20001;-27
2024/01/21 01:15:45;;;;;;;3.53;0.80;;;;;;;10.17;38.08;97281.25;6155508;23;20009;-27
2024/01/21 01:18:10;;;;;;;2.67;0.70;;;;;;;9.97;38.45;97286.47;6129345;23;20009;-27
2024/01/21 01:20:35;;;;;;;2.50;0.70;;;;;;;10.23;37.97;97282.38;6155654;23;20056;-27
2024/01/21 01:23:01;;;;;;;3.40;0.70;;;;;;;10.23;38.37;97295.94;6155498;23;20293;-27
2024/01/21 01:25:27;;;;;;;2.47;0.80;;;;;;;10.32;38.19;97297.00;6129436;23;20013;-27
2024/01/21 01:27:52;;;;;;;2.85;1.08;;;;;;;10.16;38.49;97315.72;6155639;23;20080;-27
2024/01/21 01:30:18;;;;;;;4.25;0.90;;;;;;;10.20;38.92;97321.91;6155753;23;20012;-27
2024/01/21 01:32:44;;;;;;;3.40;0.80;;;;;;;10.22;38.38;97313.38;6155129;23;20001;-27
2024/01/21 01:35:10;;;;;;;1.98;0.85;;;;;;;10.01;38.54;97320.50;6155708;23;20011;-27
2024/01/21 01:37:35;;;;;;;2.92;0.70;;;;;;;10.11;38.40;97313.44;6155797;23;20005;-27
2024/01/21 01:40:01;;;;;;;3.67;1.13;;;;;;;9.99;38.46;97305.81;6155501;23;20001;-27
2024/01/21 01:42:26;;;;;;;6.43;1.88;;;;;;;9.87;38.91;97298.97;6123876;23;20029;-27
2024/01/21 01:44:51;;;;;;;3.53;0.68;;;;;;;10.16;38.29;97309.53;6126391;23;20002;-27
2024/01/21 01:47:17;;;;;;;2.53;0.70;;;;;;;10.04;38.73;97289.09;6125573;23;20006;-27
2024/01/21 01:49:42;;;;;;;2.85;0.80;;;;;;;9.90;39.23;97268.34;6126113;23;20049;-27
2024/01/21 01:52:13;;;;;;;4.75;1.00;;;;;;;10.11;38.44;97267.38;6125626;23;20063;-27
2024/01/21 01:54:40;;;;;;;6.43;1.20;;;;;;;10.16;38.72;97258.03;6125707;23;20013;-27
2024/01/21 01:57:07;;;;;;;3.38;0.93;;;;;;;10.23;38.48;97256.06;6126021;23;20420;-26
2024/01/21 01:59:34;;;;;;;3.17;0.80;;;;;;;10.17;38.63;97241.34;6125874;23;20032;-27
2024/01/21 02:02:00;;;;;;;2.28;0.73;;;;;;;10.16;38.95;97249.88;6125931;23;20380;-27
2024/01/21 02:04:25;;;;;;;1.88;0.70;;;;;;;10.12;39.13;97265.44;6125705;23;20085;-27
2024/01/21 02:06:52;;;;;;;5.55;0.90;;;;;;;10.06;39.22;97273.22;6125332;23;20425;-27
2024/01/21 02:09:18;;;;;;;4.57;0.90;;;;;;;10.23;39.10;97283.16;6125720;23;20340;-27
2024/01/21 02:11:43;;;;;;;3.45;1.10;;;;;;;10.13;39.24;97292.16;6125701;23;20002;-27
2024/01/21 02:14:10;;;;;;;2.55;0.70;;;;;;;9.66;39.84;97297.16;6125719;23;20002;-27
2024/01/21 02:16:35;;;;;;;4.18;0.80;;;;;;;10.01;38.86;97304.22;6125871;23;20409;-27
2024/01/21 02:19:03;;;;;;;5.63;0.95;;;;;;;10.22;39.17;97291.69;6125226;23;20009;-27
2024/01/21 02:21:29;;;;;;;4.65;1.35;;;;;;;10.02;39.30;97305.00;6125517;23;20008;-27
2024/01/21 02:23:54;;;;;;;3.13;0.70;;;;;;;10.12;38.82;97298.72;6125562;23;20005;-27
2024/01/21 02:26:20;;;;;;;3.53;0.93;;;;;;;9.99;39.09;97305.81;6126006;23;20417;-27
2024/01/21 02:28:45;;;;;;;4.22;0.75;;;;;;;10.05;38.90;97313.09;6125345;23;20006;-27
2024/01/21 02:31:11;;;;;;;3.67;0.90;;;;;;;10.11;38.58;97323.53;6125211;23;20332;-27
2024/01/21 02:33:36;;;;;;;4.35;0.93;;;;;;;10.12;38.95;97325.84;6125654;23;20017;-27
2024/01/21 02:36:03;;;;;;;3.90;1.10;;;;;;;10.01;39.08;97322.47;6125633;23;20005;-28
2024/01/21 02:38:28;;;;;;;4.75;1.02;;;;;;;10.14;38.47;97318.06;6125537;23;20006;-27
2024/01/21 02:40:53;;;;;;;5.22;1.02;;;;;;;10.01;38.90;97317.03;6130972;23;20432;-27
2024/01/21 02:43:19;;;;;;;3.40;0.95;;;;;;;10.29;38.77;97316.78;6154727;23;20297;-27
2024/01/21 02:45:44;;;;;;;3.90;0.70;;;;;;;10.39;38.73;97310.47;6154969;23;20002;-27
2024/01/21 02:48:10;;;;;;;5.15;0.88;;;;;;;10.10;38.70;97317.34;6155106;23;20010;-27
2024/01/21 02:50:35;;;;;;;5.05;0.80;;;;;;;10.06;38.98;97322.00;6154507;23;20009;-27
2024/01/21 02:53:01;;;;;;;1.83;0.52;;;;;;;10.12;38.52;97314.22;6154939;23;20077;-27
2024/01/21 02:55:26;;;;;;;4.43;0.75;;;;;;;10.28;38.74;97323.38;6154549;23;20009;-27
2024/01/21 02:57:51;;;;;;;3.50;0.60;;;;;;;10.25;38.73;97329.63;6155002;23;20088;-27
2024/01/21 03:00:17;;;;;;;3.53;0.63;;;;;;;10.14;38.85;97337.03;6154801;23;20006;-27
2024/01/21 03:02:43;;;;;;;2.10;0.73;;;;;;;10.13;38.87;97338.22;6154674;23;20005;-27
2024/01/21 03:05:08;;;;;;;3.55;0.80;;;;;;;10.41;38.46;97331.78;6154887;23;20080;-27
2024/01/21 03:07:34;;;;;;;4.20;0.90;;;;;;;10.18;38.97;97345.94;6154565;23;20012;-27
2024/01/21 03:09:59;;;;;;;4.35;0.73;;;;;;;10.20;39.15;97346.31;6154963;23;20001;-27
2024/01/21 03:12:25;;;;;;;3.25;0.93;;;;;;;10.04;38.96;97329.75;6154693;23;20005;-27
2024/01/21 03:14:50;;;;;;;3.13;0.80;;;;;;;10.16;39.00;97340.09;6154610;23;20060;-27
2024/01/21 03:17:16;;;;;;;2.20;0.70;;;;;;;10.03;38.92;97336.34;6155563;23;20084;-27
2024/01/21 03:19:41;;;;;;;5.50;0.82;;;;;;;10.06;38.52;97324.72;6156797;23;20002;-27
2024/01/21 03:22:06;;;;;;;2.88;0.90;;;;;;;10.09;39.11;97334.75;6156529;23;20076;-27
2024/01/21 03:24:32;;;;;;;3.55;0.70;;;;;;;10.14;38.90;97339.00;6156768;23;20075;-27
2024/01/21 03:26:57;;;;;;;1.73;0.70;;;;;;;9.88;39.07;97332.25;6156032;23;20016;-27
2024/01/21 03:29:23;;;;;;;2.55;0.68;;;;;;;9.86;39.00;97323.75;6156701;23;19998;-27
2024/01/21 03:31:49;;;;;;;2.05;0.70;;;;;;;9.94;39.38;97325.22;6156543;23;20335;-27
2024/01/21 03:34:15;;;;;;;3.53;0.70;;;;;;;10.04;38.93;97313.50;6156234;23;20002;-27
2024/01/21 03:36:40;;;;;;;3.83;0.70;;;;;;;9.99;39.02;97316.66;6156882;23;20001;-27
2024/01/21 03:39:06;;;;;;;2.78;1.38;;;;;;;9.97;39.06;97308.16;6130106;23;20013;-27
2024/01/21 03:41:31;;;;;;;4.45;0.85;;;;;;;9.83;39.30;97335.38;6156389;23;20020;-27
2024/01/21 03:43:57;;;;;;;2.33;0.63;;;;;;;9.89;38.82;97320.22;6156492;23;20375;-27
2024/01/21 03:46:23;;;;;;;3.25;0.70;;;;;;;10.00;39.08;97329.81;6156182;23;20060;-27
2024/01/21 03:48:49;;;;;;;4.55;0.80;;;;;;;9.87;39.26;97338.81;6156350;23;20009;-27
2024/01/21 03:51:14;;;;;;;2.67;0.88;;;;;;;9.97;39.03;97344.16;6156358;23;20005;-27
2024/01/21 03:53:40;;;;;;;4.30;0.60;;;;;;;10.23;38.74;97358.28;6156500;23;20426;-27
2024/01/21 03:56:17;;;;;;;2.78;0.90;;;;;;;9.81;39.54;97360.13;6156729;23;20308;-27
2024/01/21 03:58:42;;;;;;;2.80;0.85;;;;;;;10.06;39.31;97365.38;6156053;23;20005;-27
2024/01/21 04:01:08;;;;;;;3.75;0.75;;;;;;;9.88;39.63;97367.47;6156389;23;20002;-27
2024/01/21 04:03:33;;;;;;;5.35;0.73;;;;;;;10.08;38.98;97369.22;6156311;23;20375;-27
2024/01/21 04:05:58;;;;;;;4.13;0.90;;;;;;;10.08;39.01;97363.03;6156358;23;20359;-27
2024/01/21 04:08:24;;;;;;;4.03;0.60;;;;;;;10.07;38.74;97362.25;6156321;23;20005;-27
2024/01/21 04:10:50;;;;;;;2.00;0.50;;;;;;;10.12;39.08;97363.78;6155922;23;20028;-27
2024/01/21 04:13:17;;;;;;;4.57;1.30;;;;;;;10.05;39.40;97369.25;6156519;23;20005;-27
2024/01/21 04:15:42;;;;;;;3.83;0.70;;;;;;;10.00;39.21;97372.41;6129992;23;20005;-27
2024/01/21 04:18:07;;;;;;;2.63;0.90;;;;;;;9.92;39.07;97387.16;6156333;23;20134;-27
2024/01/21 04:20:33;;;;;;;6.10;0.82;;;;;;;9.90;39.31;97389.47;6156110;23;20479;-27
2024/01/21 04:22:58;;;;;;;1.75;1.00;;;;;;;9.92;39.43;97395.28;6156191;23;19997;-27
2024/01/21 04:25:27;;;;;;;2.25;0.90;;;;;;;10.11;39.07;97394.75;6156064;23;20472;-27
2024/01/21 04:27:52;;;;;;;1.98;0.45;;;;;;;10.05;39.23;97374.66;6155929;23;20393;-27
2024/01/21 04:30:18;;;;;;;3.80;0.88;;;;;;;10.20;39.27;97380.78;6156012;23;20068;-27
2024/01/21 04:32:43;;;;;;;8.57;0.95;;;;;;;9.94;39.59;97387.53;6156534;23;20396;-27
2024/01/21 04:35:09;;;;;;;3.10;0.75;;;;;;;10.00;39.51;97386.72;6155833;23;20002;-27
2024/01/21 04:37:35;;;;;;;2.95;0.60;;;;;;;10.27;39.00;97378.75;6155867;23;20052;-27
2024/01/21 04:40:00;;;;;;;2.40;0.73;;;;;;;9.94;39.35;97380.16;6156150;23;20005;-27
2024/01/21 04:42:26;;;;;;;4.35;0.82;;;;;;;10.23;38.79;97399.72;6155359;23;20085;-27
2024/01/21 04:44:51;;;;;;;4.10;0.60;;;;;;;10.09;38.98;97402.53;6156221;23;20013;-27
2024/01/21 04:47:17;;;;;;;2.40;0.63;;;;;;;9.77;39.25;97402.00;6155766;23;20327;-27
2024/01/21 04:49:42;;;;;;;7.50;1.15;;;;;;;9.84;39.85;97410.81;6155845;23;20080;-27
2024/01/21 04:52:08;;;;;;;1.77;0.50;;;;;;;9.90;39.48;97424.72;6155631;23;20005;-27
2024/01/21 04:54:33;;;;;;;4.05;0.70;;;;;;;10.05;39.49;97428.88;6155957;23;20009;-27
2024/01/21 04:56:59;;;;;;;4.22;0.75;;;;;;;10.05;39.17;97423.44;6155712;23;20550;-27
2024/01/21 04:59:24;;;;;;;4.40;0.80;;;;;;;9.76;39.47;97422.88;6155978;23;20032;-27
2024/01/21 05:01:50;;;;;;;3.97;0.93;;;;;;;9.99;39.31;97415.00;6155674;23;20071;-27
2024/01/21 05:04:15;;;;;;;3.78;1.02;;;;;;;9.90;39.59;97413.88;6155930;23;20043;-27
2024/01/21 05:06:41;;;;;;;3.65;0.93;;;;;;;9.82;39.23;97409.69;6155443;23;20001;-27
2024/01/21 05:09:06;;;;;;;2.00;0.70;;;;;;;9.74;39.55;97419.81;6155757;23;20076;-26
2024/01/21 05:11:32;;;;;;;2.83;0.60;;;;;;;9.95;39.38;97418.88;6155843;23;20434;-27
2024/01/21 05:13:57;;;;;;;2.53;1.05;;;;;;;10.00;38.92;97415.75;6155545;23;20005;-27
2024/01/21 05:16:23;;;;;;;7.28;0.70;;;;;;;10.14;38.91;97434.59;6155845;23;20427;-27
2024/01/21 05:18:48;;;;;;;1.75;0.52;;;;;;;9.87;39.41;97449.91;6155605;23;20447;-27
2024/01/21 05:21:21;;;;;;;5.03;0.73;;;;;;;9.84;39.38;97435.22;6155932;23;20001;-27
2024/01/21 05:23:51;;;;;;;3.25;0.65;;;;;;;9.87;38.91;97439.06;6155728;23;20008;-27
2024/01/21 05:26:16;;;;;;;2.28;0.68;;;;;;;9.83;38.98;97443.72;6155621;23;20005;-27
2024/01/21 05:28:42;;;;;;;2.50;0.65;;;;;;;10.06;38.59;97438.53;6155728;23;20412;-27
2024/01/21 05:31:08;;;;;;;4.40;1.20;;;;;;;9.83;38.87;97436.38;6155039;23;20427;-27
2024/01/21 05:33:36;;;;;;;2.13;0.50;;;;;;;9.87;39.20;97430.94;6155548;23;20028;-27
2024/01/21 05:36:02;;;;;;;2.08;0.60;;;;;;;9.82;38.60;97439.47;6155403;23;20009;-27
2024/01/21 05:38:27;;;;;;;2.13;0.52;;;;;;;9.80;39.25;97447.22;6155407;23;20016;-27
2024/01/21 05:40:53;;;;;;;2.58;0.60;;;;;;;9.73;38.58;97446.13;6154944;23;20372;-27
2024/01/21 05:43:19;;;;;;;1.55;0.43;;;;;;;9.71;38.68;97444.97;6155384;23;20097;-27
2024/01/21 05:45:45;;;;;;;1.65;0.50;;;;;;;9.61;38.58;97429.53;6155101;23;20037;-28
2024/01/21 05:48:10;;;;;;;2.03;0.50;;;;;;;9.56;38.79;97441.56;6155421;23;20080;-27
2024/01/21 05:50:36;;;;;;;5.00;1.33;;;;;;;9.77;38.35;97434.50;6154997;23;20009;-26
2024/01/21 05:53:05;;;;;;;3.15;0.82;;;;;;;9.75;37.75;97426.75;6155346;23;20028;-27
2024/01/21 05:55:31;;;;;;;1.70;0.52;;;;;;;9.78;37.76;97434.06;6155321;23;20016;-27
2024/01/21 05:57:56;;;;;;;6.35;1.90;;;;;;;9.87;37.94;97430.94;6155461;23;20001;-27
2024/01/21 06:00:23;;;;;;;2.83;0.70;;;;;;;9.71;37.62;97418.66;6155366;23;20008;-27
2024/01/21 06:02:48;;;;;;;2.42;0.70;;;;;;;9.58;38.49;97450.06;6155165;23;20329;-27
2024/01/21 06:05:14;;;;;;;2.70;0.95;;;;;;;9.80;37.56;97439.09;6155202;23;20068;-27
2024/01/21 06:07:39;;;;;;;1.23;0.77;;;;;;;9.81;37.57;97446.84;6155002;23;20021;-27
2024/01/21 06:10:06;;;;;;;2.95;0.63;;;;;;;9.69;37.93;97468.97;6155103;23;20442;-27
2024/01/21 06:12:32;;;;;;;1.92;0.60;;;;;;;9.81;37.94;97467.72;6154829;23;20008;-27
2024/01/21 06:14:57;;;;;;;1.83;0.50;;;;;;;9.73;37.45;97470.50;6128706;23;20006;-27
2024/01/21 06:17:23;;;;;;;3.13;0.68;;;;;;;9.82;37.68;97482.81;6155117;23;20428;-27
2024/01/21 06:19:48;;;;;;;1.73;0.70;;;;;;;9.80;37.22;97479.75;6154826;23;20297;-27
2024/01/21 06:22:14;;;;;;;2.22;1.00;;;;;;;9.91;37.21;97478.50;6155108;23;20036;-28
2024/01/21 06:24:39;;;;;;;5.00;2.03;;;;;;;9.70;37.43;97489.47;6155285;23;20001;-27
2024/01/21 06:27:04;;;;;;;6.85;1.77;;;;;;;9.54;37.34;97481.78;6154769;23;20001;-27
2024/01/21 06:29:30;;;;;;;6.63;2.15;;;;;;;9.84;37.00;97499.47;6155066;23;20032;-27
2024/01/21 06:31:56;;;;;;;3.22;1.63;;;;;;;9.76;36.77;97514.22;6154904;23;20002;-27
2024/01/21 06:34:21;;;;;;;5.95;2.22;;;;;;;9.86;36.55;97497.13;6154914;23;20428;-27
2024/01/21 06:36:47;;;;;;;6.32;1.98;;;;;;;9.83;36.85;97508.75;6155196;23;20012;-27
2024/01/21 06:39:12;;;;;;;4.25;1.50;;;;;;;9.92;36.40;97499.03;6154713;23;20005;-27
2024/01/21 06:41:38;;;;;;;2.67;0.90;;;;;;;9.66;36.88;97478.63;6154738;23;20028;-27
2024/01/21 06:44:03;;;;;;;2.60;1.00;;;;;;;9.72;36.69;97477.06;6155015;23;20013;-27
2024/01/21 06:46:29;;;;;;;3.25;0.88;;;;;;;9.65;36.79;97468.97;6154723;23;20423;-27
2024/01/21 06:48:54;;;;;;;0.73;0.50;;;;;;;9.48;36.66;97491.50;6154786;23;20416;-27
2024/01/21 06:51:31;;;;;;;1.58;0.60;;;;;;;9.69;36.45;97461.59;6154692;23;20383;-27
2024/01/21 06:54:00;;;;;;;1.73;1.08;;;;;;;9.89;36.24;97486.25;6154840;23;20077;-27
2024/01/21 06:56:26;;;;;;;1.85;0.93;;;;;;;9.83;36.21;97485.16;6154982;23;20293;-27
2024/01/21 06:58:52;;;;;;;2.33;0.80;;;;;;;9.80;36.12;97498.69;6154716;23;20016;-27
2024/01/21 07:01:18;;;;;;;1.20;0.70;;;;;;;9.63;36.48;97513.88;6154678;23;20001;-27
2024/01/21 07:03:45;;;;;;;1.88;0.60;;;;;;;9.79;36.12;97521.53;6154473;23;20032;-27
2024/01/21 07:06:11;;;;;;;4.60;1.35;;;;;;;9.72;36.43;97508.81;6155254;23;20001;-27
2024/01/21 07:08:37;;;;;;;7.20;5.70;;;;;;;9.94;35.99;97502.13;6154593;23;20375;-27
2024/01/21 07:11:09;;;;;;;5.20;3.17;;;;;;;9.75;36.50;97499.91;6155177;23;20002;-27
2024/01/21 07:13:35;;;;;;;5.38;2.95;;;;;;;9.84;36.19;97513.00;6154879;23;20048;-27
2024/01/21 07:16:01;;;;;;;3.25;1.90;;;;;;;9.87;36.28;97514.94;6154591;23;20005;-27
2024/01/21 07:18:26;;;;;;;7.75;1.40;;;;;;;9.95;36.01;97511.78;6154858;23;20010;-27
2024/01/21 07:20:52;;;;;;;5.53;1.13;;;;;;;9.74;35.92;97511.91;6154624;23;20032;-27
2024/01/21 07:23:17;;;;;;;2.40;1.10;;;;;;;9.79;36.12;97521.53;6154821;23;19998;-27
2024/01/21 07:25:43;;;;;;;2.22;0.70;;;;;;;9.73;35.99;97532.03;6154617;23;20008;-27
2024/01/21 07:28:08;;;;;;;3.17;0.88;;;;;;;9.83;36.15;97508.75;6154514;23;20028;-27
2024/01/21 07:30:34;;;;;;;3.47;1.35;;;;;;;9.84;35.79;97523.84;6154493;23;20009;-27
2024/01/21 07:32:59;;;;;;;1.30;0.65;;;;;;;9.65;35.09;97506.88;6154637;23;20463;-27
2024/01/21 07:35:24;;;;;;;5.63;1.88;;;;;;;9.73;35.97;97521.19;6154542;23;20036;-27
2024/01/21 07:37:50;;;;;;;10.55;5.72;;;;;;;9.77;36.25;97516.50;6154713;23;20028;-27
2024/01/21 07:40:16;;;;;;;10.57;4.75;;;;;;;9.83;35.77;97522.31;6154919;23;20002;-27
2024/01/21 07:42:41;;;;;;;7.50;4.50;;;;;;;9.89;36.16;97529.59;6154325;23;20013;-27
2024/01/21 07:45:07;;;;;;;7.68;3.80;;;;;;;9.81;35.68;97530.03;6154736;23;20006;-27
2024/01/21 07:47:32;;;;;;;6.03;4.07;;;;;;;9.90;36.07;97530.38;6154607;23;20347;-27
2024/01/21 07:49:58;;;;;;;5.25;2.90;;;;;;;9.97;35.79;97530.38;6154699;23;20009;-27
2024/01/21 07:52:23;;;;;;;4.35;2.60;;;;;;;10.00;35.73;97545.84;6154468;23;20005;-27
2024/01/21 07:54:49;;;;;;;4.40;2.20;;;;;;;9.97;35.85;97549.34;6128729;23;20012;-27
2024/01/21 07:57:14;;;;;;;3.70;1.55;;;;;;;9.91;36.41;97537.34;6154489;23;20474;-27
2024/01/21 07:59:40;;;;;;;1.67;1.20;;;;;;;9.90;36.27;97546.63;6154458;23;20012;-27
2024/01/21 08:02:05;;;;;;;4.88;1.35;;;;;;;10.04;36.14;97552.78;6154585;23;20001;-27
2024/01/21 08:04:31;;;;;;;1.83;0.82;;;;;;;10.00;35.72;97551.25;6155848;23;20016;-27
2024/01/21 08:06:56;;;;;;;3.58;0.90;;;;;;;9.82;36.44;97556.75;6156312;23;20055;-27
2024/01/21 08:09:22;;;;;;;1.88;0.77;;;;;;;10.01;36.12;97544.69;6156568;23;20412;-27
2024/01/21 08:11:47;;;;;;;1.40;0.50;;;;;;;10.09;35.71;97546.94;6156183;23;20009;-27
2024/01/21 08:14:13;;;;;;;3.05;0.80;;;;;;;10.02;36.10;97546.97;6156462;23;20435;-27
2024/01/21 08:16:39;;;;;;;1.70;0.52;;;;;;;10.02;36.41;97554.31;6156335;23;20010;-27
2024/01/21 08:19:04;;;;;;;2.80;0.93;;;;;;;9.97;36.56;97562.88;6155599;23;20035;-27
2024/01/21 08:21:30;;;;;;;3.15;1.10;;;;;;;10.15;36.39;97576.34;6156294;23;20008;-27
2024/01/21 08:23:55;;;;;;;2.03;1.10;;;;;;;10.01;36.85;97569.06;6156008;23;20056;-27
2024/01/21 08:26:21;;;;;;;3.65;0.70;;;;;;;10.08;36.50;97569.78;6156545;23;20056;-27
2024/01/21 08:28:46;;;;;;;2.25;0.75;;;;;;;10.05;36.50;97570.56;6156056;23;20005;-27
2024/01/21 08:31:12;;;;;;;3.85;1.30;;;;;;;10.06;36.77;97561.28;6155686;23;20009;-27
2024/01/21 08:33:37;;;;;;;4.32;1.52;;;;;;;10.17;36.73;97569.34;6156123;23;20009;-27
2024/01/21 08:36:03;;;;;;;5.80;2.10;;;;;;;10.07;37.38;97570.97;6156027;23;20002;-27
2024/01/21 08:38:29;;;;;;;8.50;3.88;;;;;;;10.16;37.03;97573.22;6155784;23;20005;-27
2024/01/21 08:40:55;;;;;;;8.05;4.00;;;;;;;10.21;36.43;97575.56;6155733;23;20028;-27
2024/01/21 08:43:20;;;;;;;7.68;3.92;;;;;;;10.24;36.64;97579.44;6155826;23;20009;-27
2024/01/21 08:45:45;;;;;;;7.07;3.10;;;;;;;10.22;36.82;97587.19;6155858;23;20080;-27
2024/01/21 08:48:11;;;;;;;7.20;3.00;;;;;;;10.22;37.21;97590.66;6156030;23;20009;-27
2024/01/21 08:50:36;;;;;;;6.20;2.90;;;;;;;10.21;37.28;97591.06;6156146;23;20093;-27
2024/01/21 08:53:02;;;;;;;5.10;2.53;;;;;;;10.25;37.27;97600.72;6156037;23;20005;-27
2024/01/21 08:55:27;;;;;;;6.18;1.92;;;;;;;10.23;37.11;97600.34;6155764;23;20028;-27
2024/01/21 08:57:53;;;;;;;4.70;1.63;;;;;;;10.22;36.59;97609.66;6155986;23;20109;-27
2024/01/21 09:00:18;;;;;;;3.88;1.88;;;;;;;10.11;37.16;97618.97;6155413;23;20001;-27
2024/01/21 09:02:44;;;;;;;4.20;1.70;;;;;;;10.29;37.45;97616.97;6155919;23;20002;-27
2024/01/21 09:05:10;;;;;;;2.65;1.42;;;;;;;10.36;37.13;97633.97;6155992;23;20087;-27
2024/01/21 09:07:35;;;;;;;2.92;1.35;;;;;;;10.39;37.48;97616.91;6155551;23;20002;-27
2024/01/21 09:10:03;;;;;;;2.78;1.00;;;;;;;10.44;37.32;97623.84;6129644;23;20016;-27
2024/01/21 09:12:29;;;;;;;3.60;1.55;;;;;;;10.48;37.51;97623.84;6155662;23;20029;-27
2024/01/21 09:14:55;;;;;;;2.42;1.20;;;;;;;10.53;37.52;97626.13;6155469;23;20005;-27
2024/01/21 09:17:20;;;;;;;4.15;1.20;;;;;;;10.89;36.69;97621.22;6155962;23;20008;-27
2024/01/21 09:19:45;;;;;;;5.00;1.67;;;;;;;11.27;35.99;97608.50;6155741;23;20001;-27
2024/01/21 09:22:11;;;;;;;6.28;1.65;;;;;;;13.43;32.61;97618.56;6129306;23;19993;-27
2024/01/21 09:24:36;;;;;;;3.67;1.40;;;;;;;14.15;31.25;97610.56;6155759;23;20017;-27
2024/01/21 09:27:02;;;;;;;2.03;1.23;;;;;;;14.13;30.57;97615.66;6155270;23;20005;-27
2024/01/21 09:29:28;;;;;;;3.45;1.25;;;;;;;15.10;29.86;97604.94;6155618;23;20336;-27
2024/01/21 09:31:55;;;;;;;3.63;1.20;;;;;;;14.96;29.61;97616.25;6155677;23;20002;-27
2024/01/21 09:34:21;;;;;;;2.55;1.10;;;;;;;15.46;29.26;97597.41;6155511;23;20012;-28
2024/01/21 09:36:46;;;;;;;5.47;2.17;;;;;;;15.72;28.84;97603.00;6155680;23;20002;-28
2024/01/21 09:39:12;;;;;;;3.88;1.80;;;;;;;15.46;28.85;97605.59;6155298;23;20039;-27
2024/01/21 09:41:50;;;;;;;3.65;1.90;;;;;;;15.90;28.30;97608.78;6155327;23;20024;-28
2024/01/21 09:44:28;;;;;;;8.43;2.72;;;;;;;15.45;28.77;97611.50;6155373;23;20020;-28
2024/01/21 09:46:58;;;;;;;3.63;2.10;;;;;;;16.09;28.54;97627.00;6155330;23;20005;-28
2024/01/21 09:49:24;;;;;;;3.22;1.88;;;;;;;16.00;28.42;97628.81;6155081;23;20590;-28
2024/01/21 09:51:50;;;;;;;3.25;1.85;;;;;;;15.95;28.57;97634.84;6155553;23;20009;-28
2024/01/21 09:54:17;;;;;;;3.88;2.50;;;;;;;15.56;28.90;97631.19;6155436;23;20005;-28
2024/01/21 09:56:43;;;;;;;5.13;2.90;;;;;;;15.13;29.78;97623.22;6154911;23;20343;-28
2024/01/21 09:59:10;;;;;;;5.78;1.88;;;;;;;14.43;30.65;97625.63;6155202;23;20009;-28
2024/01/21 10:01:40;;;;;;;4.88;1.42;;;;;;;14.35;31.13;97622.22;6129101;23;20001;-28
2024/01/21 10:04:10;;;;;;;4.28;1.63;;;;;;;15.16;30.19;97627.06;6155260;23;20005;-28
2024/01/21 10:06:36;;;;;;;4.18;2.28;;;;;;;14.96;30.70;97640.81;6155064;23;20001;-28
2024/01/21 10:09:19;;;;;;;9.48;5.38;;;;;;;14.66;30.64;97645.38;6155252;23;20001;-27
2024/01/21 10:11:49;;;;;;;7.30;3.10;;;;;;;13.89;31.94;97636.78;6155164;23;20005;-27
2024/01/21 10:14:15;;;;;;;5.55;3.13;;;;;;;13.97;31.48;97638.97;6129169;23;20019;-28
2024/01/21 10:16:44;;;;;;;5.03;3.05;;;;;;;13.88;32.06;97622.38;6155298;23;20005;-28
2024/01/21 10:19:16;;;;;;;15.05;8.88;;;;;;;13.41;32.89;97616.25;6155231;23;20008;-28
2024/01/21 10:21:42;;;;;;;8.50;3.90;;;;;;;13.14;33.27;97619.03;6155121;23;20008;-27
2024/01/21 10:24:11;;;;;;;11.63;6.22;;;;;;;13.18;33.71;97611.56;6154983;23;20390;-27
2024/01/21 10:26:37;;;;;;;13.63;5.68;;;;;;;12.96;34.38;97618.53;6154812;23;20052;-27
2024/01/21 10:29:02;;;;;;;8.40;4.00;;;;;;;12.77;34.52;97624.63;6154942;23;20055;-27
2024/01/21 10:31:28;;;;;;;9.60;4.53;;;;;;;12.66;35.43;97627.50;6155190;23;20084;-27
2024/01/21 10:33:53;;;;;;;6.10;2.85;;;;;;;12.49;34.83;97628.53;6154878;23;20001;-27
2024/01/21 10:36:20;;;;;;;5.43;2.58;;;;;;;12.36;36.05;97627.56;6154896;23;20323;-27
2024/01/21 10:38:49;;;;;;;6.28;3.47;;;;;;;12.24;36.00;97626.13;6128532;23;20001;-27
2024/01/21 10:41:24;;;;;;;5.50;2.47;;;;;;;12.12;35.72;97629.38;6154707;23;20032;-27
2024/01/21 10:43:51;;;;;;;5.10;2.35;;;;;;;11.93;35.55;97633.50;6155302;23;20001;-27
2024/01/21 10:46:18;;;;;;;4.00;1.80;;;;;;;12.19;35.44;97618.44;6154743;23;20029;-27
2024/01/21 10:48:44;;;;;;;3.40;1.42;;;;;;;12.09;36.02;97625.56;6154980;23;20340;-27
2024/01/21 10:51:10;;;;;;;2.67;1.42;;;;;;;12.12;35.35;97626.66;6155063;23;20002;-27
2024/01/21 10:53:38;;;;;;;3.78;2.00;;;;;;;11.99;36.33;97617.53;6154426;23;20371;-27
2024/01/21 10:56:05;;;;;;;5.13;3.30;;;;;;;11.94;36.58;97618.72;6154795;23;20006;-27
2024/01/21 10:58:31;;;;;;;6.90;2.80;;;;;;;12.04;36.57;97630.66;6154800;23;20012;-27
2024/01/21 11:00:57;;;;;;;3.40;2.70;;;;;;;11.86;36.65;97626.22;6155359;23;20064;-27
2024/01/21 11:03:27;;;;;;;3.65;2.13;;;;;;;11.80;36.75;97629.75;6154959;23;19998;-27
2024/01/21 11:06:04;;;;;;;3.65;2.22;;;;;;;11.80;37.41;97635.97;6154362;23;20125;-27
2024/01/21 11:08:31;;;;;;;4.97;2.55;;;;;;;11.69;36.93;97627.13;6155029;23;20056;-27
2024/01/21 11:11:08;;;;;;;4.30;2.70;;;;;;;11.66;37.87;97630.66;6154810;23;20009;-27
2024/01/21 11:13:43;;;;;;;5.22;2.80;;;;;;;11.51;38.47;97632.72;6154876;23;20010;-27
2024/01/21 11:16:12;;;;;;;7.78;3.15;;;;;;;11.82;37.47;97628.19;6154774;23;20025;-27
2024/01/21 11:18:37;;;;;;;14.90;8.48;;;;;;;11.69;37.46;97623.66;6154514;23;20108;-27
2024/01/21 11:21:03;;;;;;;25.33;12.80;;;;;;;11.79;37.20;97629.00;6154622;23;20029;-27
2024/01/21 11:23:29;;;;;;;16.33;10.10;;;;;;;11.80;36.94;97614.22;6155090;23;20079;-27
2024/01/21 11:25:54;;;;;;;12.48;6.53;;;;;;;11.72;37.14;97612.75;6154770;23;20315;-27
2024/01/21 11:28:29;;;;;;;8.75;5.05;;;;;;;11.64;37.42;97602.34;6154637;23;20007;-27
2024/01/21 11:31:07;;;;;;;10.32;5.82;;;;;;;11.70;37.01;97609.66;6154894;23;20011;-27